Terminal Aerodrome Forecast
Issued by NWS Sterling, VA

Current Version | Previous Version | Graphics & Text | Print | Product List | Glossary On
Versions: 1 2 3 4 5 6 7 8 9 10 11 12 13 14 15 16 17 18 19 20 21 22 23 24 25 26 27 28
000
FTUS41 KLWX 182337
TAFDCA
TAF
KDCA 182337Z 1900/1924 36009KT P6SM VCSH FEW018 BKN050
     FM190300 27004KT P6SM BKN070
     FM190800 30005KT P6SM SCT040
     FM191000 31005KT P6SM SCT250
     FM192200 25006KT P6SM SCT250=

USA.gov is the U.S. government's official web portal to all federal, state and local government web resources and services.